Melba, Mississippi
Current Conditions -  °F | °C
As of 8:35 AM on Friday 19 Dec 2014 (Local Time) from KPIB Reporting Station
Scattered Clouds Scattered Clouds  
Wind Chill: 44°   Ceiling: Unl
Heat Index: 46°   Visibility: 8mi
Dew Point: 43°   Wind: 5mph
Humidity: 87%   Direction: 30°NNE
Pressure: 30.24"   Gusts: NA
Location:  31.3235°N, 89.5695°W
Report Text: KPIB 191435Z AUTO 03004KT 8SM SCT023 08/06 A3024 RMK AO1 P0004
Loading
Personal Weather Stations






























Interactive Weather Map New forecast layout! Learn more

10-Day Weather Forecast

Advertisements
Track Severe Weather on mobile